Time;durP1;ratioP1;P1;durP2;ratioP2;P2;SDS_P1;SDS_P2;PMS_P1;PMS_P2;Temp;Humidity;BMP_temperature;BMP_pressure;BME280_temperature;BME280_humidity;BME280_pressure;Samples;Min_cycle;Max_cycle;Signal;HPM_P1;HPM_P2
2021/01/19 16:16:40;;;;;;;11.52;10.40;;;9.40;99.90;;;;;;10042577;23;20846;-93
2021/01/19 16:21:42;;;;;;;10.50;9.60;;;9.30;99.90;;;;;;9994033;29;20058;-94
2021/01/19 16:26:43;;;;;;;9.02;8.13;;;9.40;99.90;;;;;;9993287;29;20057;-93
2021/01/19 16:31:45;;;;;;;9.48;7.30;;;9.50;99.90;;;;;;9993256;29;20064;-94
2021/01/19 16:36:47;;;;;;;5.72;5.20;;;9.30;99.90;;;;;;9970243;29;20073;-94
2021/01/19 16:42:03;;;;;;;5.18;4.78;;;9.30;99.90;;;;;;9979588;29;20061;-94
2021/01/19 16:47:05;;;;;;;4.20;3.60;;;8.60;99.90;;;;;;10008323;29;20058;-94
2021/01/19 16:52:06;;;;;;;4.13;3.78;;;9.30;99.90;;;;;;9978336;29;20110;-94
2021/01/19 16:57:11;;;;;;;;;;;9.20;99.90;;;;;;9977345;29;20058;-94
2021/01/19 17:02:14;;;;;;;3.40;2.80;;;9.20;99.90;;;;;;9992492;29;20015;-95
2021/01/19 17:07:16;;;;;;;2.97;2.45;;;9.30;99.90;;;;;;9976864;29;20066;-94
2021/01/19 17:12:17;;;;;;;6.50;5.25;;;9.30;99.90;;;;;;9991700;29;20072;-93
2021/01/19 17:17:19;;;;;;;6.15;5.65;;;9.30;99.90;;;;;;9977126;29;20114;-94
2021/01/19 17:22:21;;;;;;;5.60;5.07;;;9.20;99.90;;;;;;9977362;29;20074;-94
2021/01/19 17:27:23;;;;;;;6.75;5.53;;;9.40;99.90;;;;;;9940785;29;20499;-95
2021/01/19 17:32:24;;;;;;;7.20;6.50;;;9.00;99.90;;;;;;9954474;29;20078;-95
2021/01/19 17:37:26;;;;;;;;;;;9.40;99.90;;;;;;9956008;29;20141;-91
2021/01/19 17:42:27;;;;;;;6.45;5.22;;;9.10;99.90;;;;;;9954237;29;19925;-93
2021/01/19 17:47:29;;;;;;;9.18;7.65;;;9.00;99.90;;;;;;9954918;29;20054;-94
2021/01/19 17:52:30;;;;;;;;;;;9.10;99.90;;;;;;9960969;29;20063;-93
2021/01/19 17:57:32;;;;;;;11.15;9.80;;;9.10;99.90;;;;;;9960006;29;19924;-94
2021/01/19 18:02:36;;;;;;;12.23;10.90;;;9.10;99.90;;;;;;9976851;29;20414;-93
2021/01/19 18:07:38;;;;;;;14.85;11.27;;;8.60;99.90;;;;;;9976098;29;20119;-93
2021/01/19 18:12:40;;;;;;;10.75;9.65;;;8.80;99.90;;;;;;9975543;29;20208;-94
2021/01/19 18:17:41;;;;;;;12.10;9.45;;;8.90;99.90;;;;;;9960006;29;20058;-94
2021/01/19 18:22:43;;;;;;;8.85;8.00;;;9.30;99.90;;;;;;9975210;29;20050;-95
2021/01/19 18:27:45;;;;;;;11.10;9.82;;;8.60;99.90;;;;;;9959909;29;20076;-93
2021/01/19 18:32:46;;;;;;;10.38;8.57;;;8.90;99.90;;;;;;9964152;29;20145;-94
2021/01/19 18:37:48;;;;;;;13.15;9.52;;;8.30;99.90;;;;;;9969183;29;20069;-94
2021/01/19 18:42:50;;;;;;;11.40;10.32;;;8.50;99.90;;;;;;9959957;29;20054;-93
2021/01/19 18:48:00;;;;;;;11.57;10.38;;;8.40;99.90;;;;;;9959792;29;20142;-94
2021/01/19 18:53:03;;;;;;;11.13;8.98;;;8.30;99.90;;;;;;9974201;29;20503;-93
2021/01/19 18:58:05;;;;;;;10.32;9.07;;;8.20;99.90;;;;;;9974367;29;20137;-94
2021/01/19 19:03:07;;;;;;;11.05;8.27;;;8.80;99.90;;;;;;9982165;29;20060;-94
2021/01/19 19:08:08;;;;;;;;;;;8.40;99.90;;;;;;9981814;29;20506;-94
2021/01/19 19:13:10;;;;;;;12.93;11.25;;;8.30;99.90;;;;;;9996695;29;20015;-94
2021/01/19 19:18:12;;;;;;;12.32;10.68;;;7.90;99.90;;;;;;9996336;29;20506;-95
2021/01/19 19:23:14;;;;;;;16.85;11.45;;;8.30;99.90;;;;;;9995979;29;20058;-93
2021/01/19 19:28:19;;;;;;;;;;;7.90;99.90;;;;;;9996049;29;20058;-94
2021/01/19 19:33:22;;;;;;;12.35;11.02;;;8.70;99.90;;;;;;10014780;29;19997;-94
2021/01/19 19:38:25;;;;;;;15.80;13.23;;;8.40;99.90;;;;;;9990510;29;20093;-95
2021/01/19 19:43:28;;;;;;;14.60;10.30;;;8.30;99.90;;;;;;10009788;29;20494;-95
2021/01/19 19:48:30;;;;;;;15.07;10.80;;;7.50;99.90;;;;;;9994927;29;20058;-93
2021/01/19 19:53:32;;;;;;;16.77;13.57;;;7.80;99.90;;;;;;9995947;29;20058;-94
2021/01/19 19:58:34;;;;;;;17.88;12.63;;;8.10;99.90;;;;;;9994665;29;20491;-94
2021/01/19 20:03:36;;;;;;;16.60;13.20;;;8.10;99.90;;;;;;9979662;29;20145;-94
2021/01/19 20:08:37;;;;;;;20.90;16.58;;;8.10;99.90;;;;;;9972006;29;20058;-95
2021/01/19 20:13:39;;;;;;;26.67;15.05;;;8.10;99.90;;;;;;9971913;29;20062;-93
2021/01/19 20:18:41;;;;;;;20.45;16.27;;;7.70;99.90;;;;;;9971175;29;20141;-94
2021/01/19 20:23:43;;;;;;;25.45;18.58;;;7.40;99.90;;;;;;9973372;29;20414;-94
2021/01/19 20:28:44;;;;;;;26.42;18.50;;;7.80;99.90;;;;;;9956268;29;20062;-94
2021/01/19 20:33:46;;;;;;;24.80;19.40;;;7.10;99.90;;;;;;9971553;29;20085;-93
2021/01/19 20:38:49;;;;;;;30.52;20.90;;;7.10;99.90;;;;;;9987361;29;20134;-94
2021/01/19 20:43:51;;;;;;;28.92;20.70;;;6.70;99.90;;;;;;10008032;29;20061;-94
2021/01/19 20:48:53;;;;;;;31.58;20.25;;;7.50;99.90;;;;;;9992253;29;20117;-94
2021/01/19 20:53:54;;;;;;;;;;;7.30;99.90;;;;;;10008737;29;20144;-93
2021/01/19 20:58:56;;;;;;;20.40;15.75;;;7.20;99.90;;;;;;10021915;29;19924;-94
2021/01/19 21:03:59;;;;;;;28.63;16.38;;;6.90;99.90;;;;;;9992680;29;20068;-94
2021/01/19 21:09:00;;;;;;;23.13;16.10;;;6.60;99.90;;;;;;10007550;29;20062;-94
2021/01/19 21:14:03;;;;;;;19.80;14.02;;;6.50;99.90;;;;;;9986725;29;20154;-94
2021/01/19 21:19:04;;;;;;;18.33;13.05;;;6.60;99.90;;;;;;9969198;29;20483;-94
2021/01/19 21:24:07;;;;;;;21.38;16.60;;;6.40;99.90;;;;;;9953685;29;20498;-94
2021/01/19 21:29:08;;;;;;;18.05;13.18;;;6.50;99.90;;;;;;9969740;29;20090;-94
2021/01/19 21:34:10;;;;;;;30.05;16.25;;;6.70;99.90;;;;;;9969455;29;20060;-94
2021/01/19 21:39:12;;;;;;;20.92;15.00;;;7.10;99.90;;;;;;10000935;29;20065;-94
2021/01/19 21:44:13;;;;;;;;;;;6.30;99.90;;;;;;9991748;29;20145;-94
2021/01/19 21:49:14;;;;;;;23.50;16.48;;;6.60;99.90;;;;;;9991727;29;19949;-93
2021/01/19 21:54:16;;;;;;;19.67;14.38;;;7.10;99.90;;;;;;9992173;29;20064;-94
2021/01/19 21:59:17;;;;;;;24.17;16.30;;;7.00;99.90;;;;;;9991434;29;20057;-95
2021/01/19 22:04:19;;;;;;;21.23;17.15;;;6.30;99.90;;;;;;10005875;29;20064;-94
2021/01/19 22:09:20;;;;;;;22.27;16.20;;;6.70;99.90;;;;;;9991695;29;20064;-94
2021/01/19 22:14:22;;;;;;;19.63;15.18;;;6.40;99.90;;;;;;9990561;29;20078;-95
2021/01/19 22:19:23;;;;;;;20.05;15.82;;;7.10;99.90;;;;;;9974019;24;20046;-92
2021/01/19 22:24:25;;;;;;;23.88;15.73;;;6.40;99.90;;;;;;9952465;29;20069;-92
2021/01/19 22:29:27;;;;;;;26.27;15.80;;;6.50;99.90;;;;;;9953445;29;20064;-93
2021/01/19 22:34:28;;;;;;;23.55;17.00;;;6.50;99.90;;;;;;9955359;29;20062;-92
2021/01/19 22:39:30;;;;;;;19.25;14.15;;;6.70;99.90;;;;;;9960555;29;20078;-93
2021/01/19 22:44:32;;;;;;;20.50;13.63;;;7.20;99.90;;;;;;9960083;29;20060;-92
2021/01/19 22:49:33;;;;;;;21.83;14.32;;;6.50;99.90;;;;;;9959693;29;20062;-93
2021/01/19 22:54:35;;;;;;;15.52;12.73;;;6.90;99.90;;;;;;9959711;29;20137;-93
2021/01/19 22:59:36;;;;;;;18.58;11.77;;;7.10;99.90;;;;;;9958886;29;20593;-93
2021/01/19 23:04:37;;;;;;;17.98;12.73;;;6.60;99.90;;;;;;9973778;29;20062;-93
2021/01/19 23:09:40;;;;;;;15.68;12.35;;;6.40;99.90;;;;;;9959162;29;20058;-93
2021/01/19 23:14:42;;;;;;;20.13;13.05;;;6.70;99.90;;;;;;9958451;29;20414;-93
2021/01/19 23:19:43;;;;;;;21.35;14.13;;;7.00;99.90;;;;;;9958070;29;20094;-93
2021/01/19 23:24:45;;;;;;;16.83;11.13;;;7.10;99.90;;;;;;9943882;29;20080;-92
2021/01/19 23:29:47;;;;;;;22.35;12.68;;;6.60;99.90;;;;;;9958520;29;20499;-93
2021/01/19 23:34:49;;;;;;;20.52;10.93;;;6.90;99.90;;;;;;9958253;29;20145;-92
2021/01/19 23:39:50;;;;;;;;;;;6.40;99.90;;;;;;9942497;29;20141;-92
2021/01/19 23:44:52;;;;;;;19.52;11.35;;;6.80;99.90;;;;;;9985742;29;19931;-93
2021/01/19 23:49:54;;;;;;;19.63;11.25;;;6.50;99.90;;;;;;9956110;29;20153;-93
2021/01/19 23:54:55;;;;;;;17.20;10.73;;;6.30;99.90;;;;;;9956235;29;20066;-93
2021/01/19 23:59:57;;;;;;;18.38;11.02;;;7.30;99.90;;;;;;9970322;29;20066;-93
